createdAt,value
2023-04-12T00:01:16.014Z,87.36
2023-04-12T00:04:18.810Z,88.12
2023-04-12T00:07:24.960Z,88.06
2023-04-12T00:10:27.560Z,87.88
2023-04-12T00:13:30.508Z,88.57
2023-04-12T00:16:33.237Z,88.39
2023-04-12T00:19:35.517Z,88.58
2023-04-12T00:22:44.043Z,88.58
2023-04-12T00:25:46.450Z,89.08
2023-04-12T00:28:49.098Z,88.83
2023-04-12T00:31:51.318Z,88.70
2023-04-12T00:34:53.900Z,89.56
2023-04-12T00:37:56.525Z,89.68
2023-04-12T00:40:59.441Z,89.88
2023-04-12T00:44:01.657Z,89.58
2023-04-12T00:47:05.536Z,90.12
2023-04-12T00:50:09.129Z,90.70
2023-04-12T00:53:13.606Z,90.53
2023-04-12T00:56:16.139Z,90.60
2023-04-12T00:59:18.636Z,91.09
2023-04-12T01:02:20.978Z,91.03
2023-04-12T01:05:24.670Z,92.01
2023-04-12T01:08:34.096Z,92.08
2023-04-12T01:11:47.667Z,92.66
2023-04-12T01:15:12.681Z,92.73
2023-04-12T01:18:22.112Z,92.54
2023-04-12T01:21:35.944Z,92.89
2023-04-12T01:25:01.759Z,93.25
2023-04-12T01:28:05.554Z,93.50
2023-04-12T01:31:09.032Z,93.68
2023-04-12T01:34:13.671Z,94.18
2023-04-12T01:37:19.799Z,94.52
2023-04-12T01:40:22.584Z,94.07
2023-04-12T01:43:25.230Z,94.50
2023-04-12T01:46:27.603Z,94.83
2023-04-12T01:49:37.792Z,94.82
2023-04-12T01:52:46.500Z,94.96
2023-04-12T01:55:50.785Z,95.08
2023-04-12T01:58:53.940Z,94.81
2023-04-12T02:01:57.095Z,94.77
2023-04-12T02:05:01.692Z,94.39
2023-04-12T02:08:04.641Z,94.70
2023-04-12T02:11:14.732Z,94.42
2023-04-12T02:14:19.565Z,94.09
2023-04-12T02:17:21.945Z,93.44
2023-04-12T02:20:25.938Z,93.24
2023-04-12T02:23:28.091Z,92.29
2023-04-12T02:26:30.578Z,91.90
2023-04-12T02:29:32.769Z,91.72
2023-04-12T02:32:44.018Z,91.23
2023-04-12T02:35:47.721Z,90.86
2023-04-12T02:38:51.659Z,90.94
2023-04-12T02:41:54.312Z,92.62
2023-04-12T02:44:56.766Z,93.66
2023-04-12T02:47:59.458Z,94.74
2023-04-12T02:51:03.157Z,94.60
2023-04-12T02:54:06.081Z,93.84
2023-04-12T02:57:11.485Z,93.68
2023-04-12T03:00:17.948Z,93.62
2023-04-12T03:03:21.798Z,93.36
2023-04-12T03:06:26.071Z,93.65
2023-04-12T03:09:28.847Z,94.49
2023-04-12T03:12:31.112Z,94.93
2023-04-12T03:15:35.550Z,94.23
2023-04-12T03:18:38.186Z,92.79
2023-04-12T03:21:40.823Z,92.39
2023-04-12T03:24:44.691Z,92.35
2023-04-12T03:27:48.603Z,91.76
2023-04-12T03:30:51.451Z,91.51
2023-04-12T03:33:54.539Z,90.74
2023-04-12T03:36:57.428Z,90.91
2023-04-12T03:40:00.806Z,91.47
2023-04-12T03:43:03.098Z,91.44
2023-04-12T03:46:06.553Z,91.78
2023-04-12T03:49:09.116Z,91.72
2023-04-12T03:52:11.970Z,91.81
2023-04-12T03:55:18.227Z,91.50
2023-04-12T03:58:22.415Z,91.54
2023-04-12T04:01:24.706Z,91.10
2023-04-12T04:04:28.271Z,90.46
2023-04-12T04:07:32.700Z,91.08
2023-04-12T04:10:36.216Z,90.73
2023-04-12T04:13:40.089Z,90.92
2023-04-12T04:16:43.084Z,91.41
2023-04-12T04:19:45.868Z,91.28
2023-04-12T04:22:48.890Z,90.84
2023-04-12T04:25:53.451Z,91.12
2023-04-12T04:28:56.394Z,90.76
2023-04-12T04:31:59.318Z,90.23
2023-04-12T04:35:02.043Z,89.78
2023-04-12T04:38:05.596Z,89.21
2023-04-12T04:41:09.200Z,87.79
2023-04-12T04:44:13.403Z,86.58
2023-04-12T04:47:17.297Z,84.39
2023-04-12T04:50:24.143Z,83.09
2023-04-12T04:53:27.022Z,81.12
2023-04-12T04:56:30.174Z,77.35
2023-04-12T04:59:33.704Z,75.26
2023-04-12T05:02:40.131Z,73.19
2023-04-12T05:05:42.682Z,72.22
2023-04-12T05:08:45.392Z,69.57
2023-04-12T05:11:49.503Z,68.65
2023-04-12T05:14:52.027Z,67.12
2023-04-12T05:17:54.709Z,66.24
2023-04-12T05:21:02.615Z,63.47
2023-04-12T05:24:07.200Z,59.47
2023-04-12T05:27:09.806Z,58.74
2023-04-12T05:30:12.594Z,55.73
2023-04-12T05:33:15.825Z,52.22
2023-04-12T05:36:18.504Z,51.26
2023-04-12T05:39:21.239Z,47.31
2023-04-12T05:42:24.022Z,44.12
2023-04-12T05:45:27.627Z,42.09
2023-04-12T05:48:35.091Z,40.15
2023-04-12T05:51:41.424Z,36.77
2023-04-12T05:54:46.162Z,33.50
2023-04-12T05:57:49.130Z,34.40
2023-04-12T06:00:54.338Z,33.29
2023-04-12T06:03:58.294Z,29.86
2023-04-12T06:07:01.968Z,27.34
2023-04-12T06:10:07.375Z,29.47
2023-04-12T06:13:10.155Z,30.30
2023-04-12T06:16:15.635Z,29.42
2023-04-12T06:19:18.210Z,30.90
2023-04-12T06:22:20.882Z,31.91
2023-04-12T06:25:23.280Z,32.31
2023-04-12T06:28:26.482Z,33.24
2023-04-12T06:31:28.996Z,30.51
2023-04-12T06:34:33.972Z,28.05
2023-04-12T06:37:37.090Z,29.59
2023-04-12T06:40:39.939Z,29.42
2023-04-12T06:43:42.175Z,28.91
2023-04-12T06:46:44.897Z,26.63
2023-04-12T06:49:48.233Z,24.69
2023-04-12T06:52:50.834Z,24.59
2023-04-12T06:55:53.867Z,23.71
2023-04-12T06:58:57.016Z,26.71
2023-04-12T07:01:59.371Z,26.24
2023-04-12T07:05:03.215Z,27.22
2023-04-12T07:08:05.629Z,24.72
2023-04-12T07:11:19.992Z,26.00
2023-04-12T07:14:24.345Z,27.80
2023-04-12T07:17:27.162Z,26.82
2023-04-12T07:20:29.486Z,30.38
2023-04-12T07:23:32.099Z,27.32
2023-04-12T07:26:34.356Z,27.12
2023-04-12T07:29:37.351Z,28.50
2023-04-12T07:32:39.562Z,33.02
2023-04-12T07:35:42.768Z,35.90
2023-04-12T07:38:44.910Z,38.72
2023-04-12T07:41:48.381Z,38.54
2023-04-12T07:44:50.743Z,39.83
2023-04-12T07:47:53.278Z,42.54
2023-04-12T07:50:55.581Z,44.08
2023-04-12T07:53:58.523Z,46.76
2023-04-12T07:57:05.465Z,50.31
2023-04-12T08:00:09.149Z,50.57
2023-04-12T08:03:17.533Z,51.31
2023-04-12T08:06:20.219Z,50.42
2023-04-12T08:09:23.583Z,50.30
2023-04-12T08:12:26.283Z,50.53
2023-04-12T08:15:28.413Z,49.72
2023-04-12T08:18:30.926Z,50.13
2023-04-12T08:21:33.847Z,49.65
2023-04-12T08:24:36.360Z,47.75
2023-04-12T08:27:43.192Z,49.63
2023-04-12T08:30:45.704Z,50.02
2023-04-12T08:33:48.073Z,50.76
2023-04-12T08:36:50.583Z,50.41
2023-04-12T08:39:52.859Z,49.98
2023-04-12T08:42:57.567Z,51.66
2023-04-12T08:46:00.898Z,52.10
2023-04-12T08:49:03.427Z,50.43
2023-04-12T08:52:07.517Z,48.69
2023-04-12T08:55:12.714Z,50.84
2023-04-12T08:58:15.655Z,50.83
2023-04-12T09:01:21.647Z,50.10
2023-04-12T09:04:26.220Z,49.72
2023-04-12T09:07:30.605Z,49.92
2023-04-12T09:10:36.423Z,50.12
2023-04-12T09:13:39.616Z,51.16
2023-04-12T09:16:42.271Z,47.75
2023-04-12T09:19:44.812Z,47.02
2023-04-12T09:22:47.659Z,45.32
2023-04-12T09:25:53.721Z,43.76
2023-04-12T09:28:57.498Z,44.05
2023-04-12T09:32:03.384Z,41.10
2023-04-12T09:35:06.389Z,39.39
2023-04-12T09:38:10.359Z,38.52
2023-04-12T09:41:20.233Z,39.93
2023-04-12T09:44:30.570Z,42.54
2023-04-12T09:47:40.411Z,42.91
2023-04-12T09:50:43.596Z,45.39
2023-04-12T09:53:48.061Z,44.79
2023-04-12T09:56:51.126Z,44.88
2023-04-12T09:59:56.861Z,40.96
2023-04-12T10:02:59.939Z,41.09
2023-04-12T10:06:04.715Z,38.83
2023-04-12T10:09:08.654Z,35.98
2023-04-12T10:12:11.189Z,33.03
2023-04-12T10:15:17.225Z,30.80
2023-04-12T10:18:21.969Z,31.20
2023-04-12T10:21:24.415Z,32.04
2023-04-12T10:24:28.892Z,33.38
2023-04-12T10:27:32.059Z,32.74
2023-04-12T10:30:34.427Z,32.33
2023-04-12T10:33:38.229Z,33.55
2023-04-12T10:37:00.493Z,35.22
2023-04-12T10:43:19.146Z,31.95
2023-04-12T10:46:41.082Z,31.53
2023-04-12T10:50:21.700Z,31.54
2023-04-12T10:53:25.266Z,29.05
2023-04-12T10:56:33.961Z,29.41
2023-04-12T10:59:57.199Z,28.94
2023-04-12T11:03:12.703Z,27.45
2023-04-12T11:06:27.072Z,27.68
2023-04-12T11:09:34.361Z,26.14
2023-04-12T11:12:38.810Z,24.16
2023-04-12T11:15:41.428Z,28.72
2023-04-12T11:18:47.196Z,25.87
2023-04-12T11:21:51.461Z,25.73
2023-04-12T11:24:56.479Z,25.21
2023-04-12T11:28:00.917Z,23.49
2023-04-12T11:31:03.989Z,22.62
2023-04-12T11:34:08.671Z,20.29
2023-04-12T11:37:11.175Z,23.83
2023-04-12T11:40:14.545Z,24.71
2023-04-12T11:43:22.716Z,23.38
2023-04-12T11:46:25.536Z,23.09
2023-04-12T11:49:28.362Z,24.02
2023-04-12T11:52:32.323Z,20.77
2023-04-12T11:55:34.480Z,23.33
2023-04-12T11:58:37.054Z,24.06
2023-04-12T12:01:39.384Z,23.07
2023-04-12T12:04:47.635Z,22.09
2023-04-12T12:07:52.567Z,22.47
2023-04-12T12:11:40.028Z,24.39
2023-04-12T12:14:21.953Z,24.93
2023-04-12T12:17:24.370Z,23.91
2023-04-12T12:20:29.951Z,24.36
2023-04-12T12:23:33.541Z,24.58
2023-04-12T12:26:35.943Z,22.51
2023-04-12T12:29:38.719Z,23.40
2023-04-12T12:32:41.034Z,23.82
2023-04-12T12:35:43.629Z,23.23
2023-04-12T12:38:45.848Z,22.39
2023-04-12T12:41:55.513Z,23.53
2023-04-12T12:44:57.634Z,23.21
2023-04-12T12:48:04.394Z,23.25
2023-04-12T12:51:06.825Z,22.81
2023-04-12T12:54:09.671Z,21.17
2023-04-12T12:57:12.359Z,22.96
2023-04-12T13:00:16.393Z,22.47
2023-04-12T13:03:18.861Z,20.93
2023-04-12T13:06:22.135Z,21.08
2023-04-12T13:09:24.275Z,21.63
2023-04-12T13:12:27.062Z,23.11
2023-04-12T13:15:29.855Z,24.85
2023-04-12T13:18:32.458Z,24.48
2023-04-12T13:21:34.590Z,24.23
2023-04-12T13:24:37.102Z,23.13
2023-04-12T13:27:39.565Z,26.03
2023-04-12T13:30:42.498Z,25.15
2023-04-12T13:33:44.794Z,25.52
2023-04-12T13:36:47.839Z,26.49
2023-04-12T13:39:53.217Z,24.74
2023-04-12T13:42:55.703Z,25.18
2023-04-12T13:45:57.956Z,25.96
2023-04-12T13:49:00.663Z,26.12
2023-04-12T13:52:03.162Z,27.17
2023-04-12T13:55:08.314Z,27.12
2023-04-12T13:58:10.704Z,28.34
2023-04-12T14:01:13.554Z,25.95
2023-04-12T14:04:16.102Z,26.79
2023-04-12T14:07:18.580Z,27.82
2023-04-12T14:10:21.077Z,28.79
2023-04-12T14:13:24.116Z,29.08
2023-04-12T14:16:26.606Z,29.14
2023-04-12T14:19:28.882Z,28.85
2023-04-12T14:22:31.464Z,26.73
2023-04-12T14:25:36.949Z,27.63
2023-04-12T14:28:39.913Z,26.70
2023-04-12T14:31:42.296Z,26.77
2023-04-12T14:34:45.014Z,26.90
2023-04-12T14:37:47.985Z,26.33
2023-04-12T14:40:51.574Z,26.90
2023-04-12T14:43:53.811Z,28.30
2023-04-12T14:46:56.742Z,27.41
2023-04-12T14:49:58.961Z,26.30
2023-04-12T14:53:01.411Z,26.29
2023-04-12T14:56:03.663Z,25.44
2023-04-12T14:59:06.159Z,27.48
2023-04-12T15:02:08.779Z,26.78
2023-04-12T15:05:11.706Z,27.33
2023-04-12T15:08:14.033Z,27.87
2023-04-12T15:11:19.255Z,27.37
2023-04-12T15:14:22.809Z,27.28
2023-04-12T15:17:25.483Z,27.86
2023-04-12T15:20:27.721Z,27.65
2023-04-12T15:23:30.458Z,26.45
2023-04-12T15:26:35.040Z,25.90
2023-04-12T15:29:37.599Z,25.54
2023-04-12T15:32:42.657Z,25.71
2023-04-12T15:35:46.001Z,26.67
2023-04-12T15:38:48.314Z,26.83
2023-04-12T15:41:51.091Z,27.27
2023-04-12T15:44:53.350Z,27.48
2023-04-12T15:47:56.170Z,27.91
2023-04-12T15:51:00.253Z,26.04
2023-04-12T15:54:02.844Z,26.78
2023-04-12T15:57:09.460Z,27.42
2023-04-12T16:00:20.668Z,27.24
2023-04-12T16:03:24.698Z,28.29
2023-04-12T16:06:26.820Z,28.80
2023-04-12T16:09:29.993Z,29.87
2023-04-12T16:12:32.298Z,29.58
2023-04-12T16:15:34.832Z,30.25
2023-04-12T16:18:36.999Z,30.91
2023-04-12T16:24:43.747Z,31.13
2023-04-12T16:27:46.221Z,29.53
2023-04-12T16:30:50.145Z,29.43
2023-04-12T16:33:53.591Z,30.74
2023-04-12T16:36:56.261Z,30.76
2023-04-12T16:39:58.854Z,31.73
2023-04-12T16:43:01.123Z,31.68
2023-04-12T16:46:05.150Z,30.06
2023-04-12T16:49:07.340Z,29.98
2023-04-12T16:52:10.072Z,31.45
2023-04-12T16:55:12.692Z,30.41
2023-04-12T16:58:15.714Z,31.05
2023-04-12T17:01:18.278Z,30.90
2023-04-12T17:04:20.907Z,31.09
2023-04-12T17:07:23.104Z,32.08
2023-04-12T17:10:26.697Z,32.84
2023-04-12T17:13:30.275Z,32.85
2023-04-12T17:16:32.780Z,30.57
2023-04-12T17:19:35.080Z,31.60
2023-04-12T17:22:38.482Z,32.62
2023-04-12T17:25:41.430Z,32.46
2023-04-12T17:28:44.944Z,31.67
2023-04-12T17:31:50.689Z,32.78
2023-04-12T17:34:55.647Z,34.52
2023-04-12T17:37:57.857Z,33.23
2023-04-12T17:41:00.411Z,34.07
2023-04-12T17:44:02.609Z,33.94
2023-04-12T17:47:05.059Z,34.83
2023-04-12T17:50:11.532Z,34.29
2023-04-12T17:53:14.083Z,34.20
2023-04-12T17:56:18.704Z,35.30
2023-04-12T17:59:21.129Z,36.19
2023-04-12T18:02:23.459Z,35.76
2023-04-12T18:05:26.252Z,35.51
2023-04-12T18:08:28.450Z,35.81
2023-04-12T18:11:31.138Z,36.77
2023-04-12T18:14:33.368Z,36.34
2023-04-12T18:17:36.000Z,37.05
2023-04-12T18:20:38.211Z,36.32
2023-04-12T18:23:40.726Z,36.90
2023-04-12T18:26:44.082Z,36.87
2023-04-12T18:29:46.494Z,40.81
2023-04-12T18:32:48.786Z,39.04
2023-04-12T18:35:51.613Z,43.94
2023-04-12T18:38:53.776Z,41.88
2023-04-12T18:41:57.117Z,42.95
2023-04-12T18:44:59.333Z,42.94
2023-04-12T18:48:03.319Z,42.40
2023-04-12T18:51:05.542Z,43.73
2023-04-12T18:54:12.803Z,46.36
2023-04-12T18:57:15.643Z,43.72
2023-04-12T19:00:19.701Z,43.20
2023-04-12T19:03:22.098Z,43.69
2023-04-12T19:06:24.790Z,42.78
2023-04-12T19:09:27.389Z,43.77
2023-04-12T19:12:30.350Z,44.07
2023-04-12T19:15:32.647Z,48.66
2023-04-12T19:18:35.347Z,45.85
2023-04-12T19:21:37.812Z,46.91
2023-04-12T19:24:40.301Z,50.68
2023-04-12T19:27:42.435Z,50.16
2023-04-12T19:30:44.872Z,50.12
2023-04-12T19:33:47.021Z,49.35
2023-04-12T19:36:49.595Z,48.57
2023-04-12T19:39:51.769Z,47.84
2023-04-12T19:42:54.294Z,47.89
2023-04-12T19:45:57.626Z,50.93
2023-04-12T19:49:00.573Z,50.04
2023-04-12T19:52:05.440Z,49.40
2023-04-12T19:55:09.125Z,49.45
2023-04-12T19:58:11.556Z,51.50
2023-04-12T20:01:15.979Z,49.46
2023-04-12T20:04:21.066Z,50.10
2023-04-12T20:07:23.304Z,52.67
2023-04-12T20:10:25.822Z,54.82
2023-04-12T20:13:30.955Z,54.51
2023-04-12T20:16:34.975Z,53.53
2023-04-12T20:19:37.620Z,53.38
2023-04-12T20:22:48.863Z,53.72
2023-04-12T20:25:51.274Z,54.43
2023-04-12T20:28:56.672Z,54.24
2023-04-12T20:31:59.941Z,55.01
2023-04-12T20:35:03.747Z,58.69
2023-04-12T20:38:07.066Z,60.80
2023-04-12T20:41:10.712Z,60.75
2023-04-12T20:44:13.019Z,58.64
2023-04-12T20:47:16.118Z,57.38
2023-04-12T20:50:22.783Z,56.25
2023-04-12T20:53:25.602Z,59.17
2023-04-12T20:56:29.134Z,61.02
2023-04-12T20:59:33.069Z,60.78
2023-04-12T21:02:36.213Z,62.78
2023-04-12T21:05:40.071Z,63.21
2023-04-12T21:08:43.366Z,62.97
2023-04-12T21:11:46.434Z,60.27
2023-04-12T21:14:51.135Z,60.23
2023-04-12T21:17:54.203Z,59.61
2023-04-12T21:20:59.229Z,61.43
2023-04-12T21:24:03.535Z,63.63
2023-04-12T21:27:07.426Z,64.77
2023-04-12T21:30:14.008Z,66.52
2023-04-12T21:33:24.466Z,69.29
2023-04-12T21:36:28.552Z,69.33
2023-04-12T21:39:30.981Z,68.40
2023-04-12T21:42:34.508Z,67.82
2023-04-12T21:45:36.875Z,68.30
2023-04-12T21:48:39.306Z,69.26
2023-04-12T21:51:41.552Z,67.17
2023-04-12T21:54:48.664Z,67.60
2023-04-12T21:57:51.071Z,67.73
2023-04-12T22:00:53.618Z,68.64
2023-04-12T22:03:57.264Z,69.24
2023-04-12T22:07:02.037Z,69.81
2023-04-12T22:10:05.218Z,69.42
2023-04-12T22:13:10.226Z,66.74
2023-04-12T22:16:14.020Z,70.22
2023-04-12T22:19:17.079Z,70.76
2023-04-12T22:22:19.498Z,68.47
2023-04-12T22:25:21.910Z,66.97
2023-04-12T22:28:24.606Z,69.11
2023-04-12T22:31:27.533Z,67.70
2023-04-12T22:34:30.030Z,69.16
2023-04-12T22:37:33.544Z,67.15
2023-04-12T22:40:38.002Z,70.64
2023-04-12T22:43:42.705Z,70.21
2023-04-12T22:46:48.429Z,70.34
2023-04-12T22:49:50.878Z,69.20
2023-04-12T22:52:54.420Z,68.30
2023-04-12T22:55:57.179Z,69.02
2023-04-12T22:58:59.907Z,68.91
2023-04-12T23:02:02.298Z,68.44
2023-04-12T23:05:05.534Z,67.14
2023-04-12T23:08:09.181Z,68.37
2023-04-12T23:11:11.663Z,67.86
2023-04-12T23:14:17.686Z,66.37
2023-04-12T23:17:20.198Z,66.72
2023-04-12T23:20:23.055Z,66.01
2023-04-12T23:23:26.313Z,69.20
2023-04-12T23:26:28.587Z,68.75
2023-04-12T23:29:31.179Z,67.46
2023-04-12T23:32:33.363Z,66.22
2023-04-12T23:35:39.176Z,65.72
2023-04-12T23:38:44.399Z,66.86
2023-04-12T23:41:47.007Z,67.63
2023-04-12T23:44:49.741Z,69.31
2023-04-12T23:47:52.518Z,70.61
2023-04-12T23:50:54.858Z,70.12
2023-04-12T23:53:57.795Z,71.08
2023-04-12T23:57:01.296Z,70.96
